Terminal Aerodrome Forecast
Issued by NWS

Home | Current Version | Previous Version | Text Only | Print | Product List | Glossary On
Versions: 1 2 3 4 5 6 7 8 9 10 11 12 13 14 15 16 17 18
000
FTUS41 KPBZ 272000 AAA
TAFBVI
TAF AMD
KBVI 272000Z 2720/2818 26010KT P6SM SCT035 BKN120
     FM280600 11003KT P6SM -SHRA OVC015
     FM280900 18003KT 5SM -SHRA OVC010
     FM281300 31004KT 2SM -DZ BR OVC007
      AMD NOT SKED=

USA.gov is the U.S. government's official web portal to all federal, state and local government web resources and services.